createdAt,value
2018-03-07T06:17:34.631Z,17.83
2018-03-07T06:20:06.516Z,19.43
2018-03-07T06:22:38.384Z,18.50
2018-03-07T06:25:10.509Z,17.83
2018-03-07T06:27:42.389Z,17.67
2018-03-07T06:30:14.276Z,18.80
2018-03-07T06:32:46.181Z,17.10
2018-03-07T06:35:19.079Z,17.60
2018-03-07T06:37:50.954Z,16.50
2018-03-07T06:40:22.844Z,17.40
2018-03-07T06:42:54.718Z,15.87
2018-03-07T06:45:26.710Z,15.63
2018-03-07T06:47:59.347Z,16.57
2018-03-07T06:50:31.555Z,18.00
2018-03-07T06:53:03.427Z,15.23
2018-03-07T06:55:35.335Z,16.13
2018-03-07T06:58:07.215Z,16.50
2018-03-07T07:00:39.109Z,15.30
2018-03-07T07:03:10.981Z,15.83
2018-03-07T07:05:42.868Z,15.83
2018-03-07T07:08:14.744Z,15.27
2018-03-07T07:10:46.633Z,13.63
2018-03-07T07:13:19.272Z,14.10
2018-03-07T07:15:51.156Z,14.63
2018-03-07T07:18:23.799Z,14.70
2018-03-07T07:20:55.683Z,14.10
2018-03-07T07:23:27.551Z,13.83
2018-03-07T07:26:00.244Z,13.97
2018-03-07T07:28:32.875Z,14.50
2018-03-07T07:31:04.991Z,14.17
2018-03-07T07:33:36.908Z,13.60
2018-03-07T07:36:09.656Z,13.20
2018-03-07T07:38:41.540Z,13.67
2018-03-07T07:41:13.451Z,14.23
2018-03-07T07:43:46.444Z,13.73
2018-03-07T07:46:18.348Z,14.03
2018-03-07T07:48:50.273Z,13.63
2018-03-07T07:51:22.172Z,13.80
2018-03-07T07:53:54.072Z,12.70
2018-03-07T07:56:26.723Z,12.90
2018-03-07T07:58:58.826Z,14.10
2018-03-07T08:01:30.715Z,13.87
2018-03-07T08:04:02.586Z,13.77
2018-03-07T08:06:34.505Z,15.80
2018-03-07T08:09:06.407Z,15.27
2018-03-07T08:11:38.298Z,15.50
2018-03-07T08:14:10.175Z,15.53
2018-03-07T08:16:42.907Z,14.93
2018-03-07T08:19:14.775Z,14.77
2018-03-07T08:21:46.659Z,15.43
2018-03-07T08:24:18.527Z,16.23
2018-03-07T08:26:52.803Z,16.40
2018-03-07T08:29:24.682Z,15.00
2018-03-07T08:31:56.568Z,15.20
2018-03-07T08:34:29.205Z,15.53
2018-03-07T08:37:01.079Z,16.50
2018-03-07T08:39:32.959Z,14.67
2018-03-07T08:42:05.615Z,15.53
2018-03-07T08:44:37.479Z,15.17
2018-03-07T08:47:09.626Z,14.77
2018-03-07T08:49:41.506Z,16.13
2018-03-07T08:52:13.419Z,15.20
2018-03-07T08:54:46.180Z,15.50
2018-03-07T08:57:18.072Z,15.93
2018-03-07T08:59:49.952Z,15.37
2018-03-07T09:02:21.840Z,14.77
2018-03-07T09:04:53.725Z,15.63
2018-03-07T09:07:26.592Z,14.70
2018-03-07T09:09:59.224Z,15.93
2018-03-07T09:12:31.357Z,15.97
2018-03-07T09:15:03.240Z,15.13
2018-03-07T09:17:35.118Z,15.90
2018-03-07T09:20:07.240Z,16.37
2018-03-07T09:22:39.131Z,15.67
2018-03-07T09:25:11.267Z,16.67
2018-03-07T09:27:43.154Z,15.20
2018-03-07T09:30:15.040Z,14.70
2018-03-07T09:32:46.923Z,16.27
2018-03-07T09:35:18.796Z,15.33
2018-03-07T09:37:51.442Z,15.47
2018-03-07T09:40:23.315Z,15.50
2018-03-07T09:42:55.208Z,15.60
2018-03-07T09:45:27.078Z,16.13
2018-03-07T09:47:58.968Z,15.03
2018-03-07T09:50:30.849Z,17.50
2018-03-07T09:53:02.735Z,18.43
2018-03-07T09:55:35.368Z,18.33
2018-03-07T09:58:08.028Z,20.23
2018-03-07T10:00:39.891Z,18.97
2018-03-07T10:03:11.780Z,20.20
2018-03-07T10:05:43.647Z,20.57
2018-03-07T10:08:15.533Z,17.93
2018-03-07T10:10:48.163Z,20.23
2018-03-07T10:13:20.052Z,19.07
2018-03-07T10:15:52.146Z,19.93
2018-03-07T10:18:24.027Z,19.60
2018-03-07T10:20:55.900Z,19.77
2018-03-07T10:23:27.787Z,20.97
2018-03-07T10:25:59.655Z,19.77
2018-03-07T10:28:31.537Z,20.00
2018-03-07T10:31:04.216Z,20.77
2018-03-07T10:33:37.107Z,20.50
2018-03-07T10:36:08.975Z,21.47
2018-03-07T10:38:40.855Z,22.13
2018-03-07T10:41:12.724Z,23.23
2018-03-07T10:43:44.854Z,23.03
2018-03-07T10:46:16.757Z,21.73
2018-03-07T10:48:48.627Z,22.33
2018-03-07T10:51:20.503Z,19.47
2018-03-07T10:53:52.444Z,19.93
2018-03-07T10:56:24.323Z,18.97
2018-03-07T10:58:56.213Z,19.47
2018-03-07T11:01:28.844Z,19.47
2018-03-07T11:04:01.061Z,19.80
2018-03-07T11:06:32.938Z,17.87
2018-03-07T11:09:04.816Z,17.10
2018-03-07T11:11:36.691Z,19.10
2018-03-07T11:14:08.600Z,17.13
2018-03-07T11:16:40.495Z,17.67
2018-03-07T11:19:12.383Z,17.17
2018-03-07T11:21:44.256Z,17.40
2018-03-07T11:24:16.143Z,18.13
2018-03-07T11:26:48.063Z,18.53
2018-03-07T11:29:20.174Z,18.50
2018-03-07T11:31:52.040Z,18.03
2018-03-07T11:34:24.004Z,17.87
2018-03-07T11:36:55.808Z,16.90
2018-03-07T11:39:27.682Z,17.93
2018-03-07T11:42:00.319Z,17.60
2018-03-07T11:44:32.204Z,18.10
2018-03-07T11:47:04.076Z,16.57
2018-03-07T11:49:35.962Z,16.67
2018-03-07T11:52:08.595Z,15.33
2018-03-07T11:54:40.707Z,17.03
2018-03-07T11:57:12.585Z,17.93
2018-03-07T11:59:44.471Z,17.13
2018-03-07T12:02:16.595Z,16.50
2018-03-07T12:04:48.484Z,16.93
2018-03-07T12:07:20.356Z,14.60
2018-03-07T12:09:52.483Z,12.83
2018-03-07T12:12:24.353Z,11.40
2018-03-07T12:14:56.238Z,10.47
2018-03-07T12:17:28.219Z,10.50
2018-03-07T12:20:00.099Z,8.53
2018-03-07T12:22:31.996Z,7.30
2018-03-07T12:25:03.892Z,6.83
2018-03-07T12:27:35.819Z,7.37
2018-03-07T12:30:07.697Z,7.70
2018-03-07T12:32:39.572Z,5.67
2018-03-07T12:35:11.692Z,4.87
2018-03-07T12:37:43.561Z,5.00
2018-03-07T12:40:15.439Z,4.40
2018-03-07T12:42:47.416Z,4.27
2018-03-07T12:45:19.380Z,3.90
2018-03-07T12:47:51.335Z,4.57
2018-03-07T12:50:23.220Z,5.23
2018-03-07T12:52:55.119Z,5.67
2018-03-07T12:55:27.004Z,5.60
2018-03-07T12:57:58.863Z,5.40
2018-03-07T13:00:30.748Z,6.50
2018-03-07T13:03:02.624Z,6.30
2018-03-07T13:05:34.505Z,5.80
2018-03-07T13:08:07.235Z,5.97
2018-03-07T13:10:39.116Z,7.20
2018-03-07T13:13:11.075Z,7.00
2018-03-07T13:15:42.973Z,6.03
2018-03-07T13:18:15.605Z,6.00
2018-03-07T13:20:47.555Z,5.70
2018-03-07T13:23:19.464Z,5.23
2018-03-07T13:25:52.330Z,4.20
2018-03-07T13:28:24.212Z,4.50
2018-03-07T13:30:56.856Z,4.03
2018-03-07T13:33:28.799Z,3.97
2018-03-07T13:36:00.687Z,3.70
2018-03-07T13:38:32.597Z,2.90
2018-03-07T13:41:04.471Z,3.77
2018-03-07T13:43:36.347Z,3.50
2018-03-07T13:46:08.227Z,3.67
2018-03-07T13:48:40.095Z,3.70
2018-03-07T13:51:11.980Z,3.83
2018-03-07T13:53:43.862Z,3.67
2018-03-07T13:56:15.763Z,3.67
2018-03-07T13:58:47.623Z,3.47
2018-03-07T14:01:19.512Z,3.50
2018-03-07T14:03:52.159Z,3.17
2018-03-07T14:06:24.161Z,3.50
2018-03-07T14:08:56.839Z,3.90
2018-03-07T14:11:28.724Z,3.47
2018-03-07T14:14:00.611Z,3.70
2018-03-07T14:16:32.487Z,3.50
2018-03-07T14:19:04.689Z,3.30
2018-03-07T14:21:36.566Z,3.33
2018-03-07T14:24:08.713Z,3.43
2018-03-07T14:26:40.604Z,3.70
2018-03-07T14:29:12.467Z,3.83
2018-03-07T14:31:44.380Z,3.47
2018-03-07T14:34:16.262Z,4.13
2018-03-07T14:36:48.151Z,3.57
2018-03-07T14:39:20.024Z,3.77
2018-03-07T14:41:51.907Z,3.40
2018-03-07T14:44:23.779Z,3.40
2018-03-07T14:46:56.427Z,3.80
2018-03-07T14:49:28.310Z,3.53
2018-03-07T14:52:00.959Z,3.53
2018-03-07T14:54:32.828Z,3.57
2018-03-07T14:57:04.938Z,3.10
2018-03-07T14:59:36.799Z,3.03
2018-03-07T15:02:08.679Z,2.90
2018-03-07T15:04:40.555Z,2.70
2018-03-07T15:07:12.463Z,2.60
2018-03-07T15:09:45.099Z,2.80
2018-03-07T15:12:16.985Z,2.50
2018-03-07T15:14:48.890Z,2.20
2018-03-07T15:17:20.769Z,1.80
2018-03-07T15:19:52.636Z,1.90
2018-03-07T15:22:24.760Z,2.10
2018-03-07T15:24:56.632Z,1.70
2018-03-07T15:27:28.520Z,1.90
2018-03-07T15:30:00.442Z,2.00
2018-03-07T15:32:33.082Z,1.90
2018-03-07T15:35:04.972Z,1.73
2018-03-07T15:37:36.847Z,1.77
2018-03-07T15:40:08.724Z,1.57
2018-03-07T15:42:40.607Z,1.90
2018-03-07T15:45:12.478Z,1.70
2018-03-07T15:47:44.362Z,1.60
2018-03-07T15:50:16.989Z,1.60
2018-03-07T15:52:48.871Z,1.67
2018-03-07T15:55:20.742Z,2.07
2018-03-07T15:57:52.623Z,2.05
2018-03-07T16:00:25.520Z,2.30
2018-03-07T16:02:57.400Z,2.40
2018-03-07T16:05:29.647Z,2.10
2018-03-07T16:08:01.813Z,2.37
2018-03-07T16:10:33.680Z,2.57
2018-03-07T16:13:05.559Z,2.30
2018-03-07T16:15:37.700Z,2.47
2018-03-07T16:18:09.606Z,2.80
2018-03-07T16:20:41.478Z,3.13
2018-03-07T16:23:13.367Z,2.90
2018-03-07T16:25:45.999Z,3.00
2018-03-07T16:28:17.887Z,2.50
2018-03-07T16:30:49.983Z,2.63
2018-03-07T16:33:21.863Z,2.40
2018-03-07T16:35:53.728Z,2.40
2018-03-07T16:38:25.604Z,2.10
2018-03-07T16:40:57.467Z,2.23
2018-03-07T16:43:29.358Z,2.27
2018-03-07T16:46:01.270Z,2.77
2018-03-07T16:48:33.871Z,2.93
2018-03-07T16:51:05.738Z,3.30
2018-03-07T16:53:37.607Z,3.40
2018-03-07T16:56:09.472Z,3.23
2018-03-07T16:58:41.666Z,3.37
2018-03-07T17:01:13.623Z,3.77
2018-03-07T17:03:46.272Z,3.33
2018-03-07T17:06:18.143Z,3.13
2018-03-07T17:08:50.027Z,3.00
2018-03-07T17:11:21.894Z,3.00
2018-03-07T17:13:53.774Z,3.80
2018-03-07T17:16:25.635Z,2.20
2018-03-07T17:18:57.564Z,2.20
2018-03-07T17:21:30.199Z,3.30
2018-03-07T17:24:02.413Z,2.50
2018-03-07T17:26:34.283Z,2.30
2018-03-07T17:29:06.444Z,2.30
2018-03-07T17:31:38.317Z,2.53
2018-03-07T17:34:10.196Z,3.23
2018-03-07T17:36:42.060Z,3.07
2018-03-07T17:39:13.943Z,3.20
2018-03-07T17:41:46.066Z,5.73
2018-03-07T17:44:17.946Z,2.70
2018-03-07T17:46:49.820Z,2.63
2018-03-07T17:49:22.476Z,1.77
2018-03-07T17:51:54.340Z,2.10
2018-03-07T17:54:26.219Z,1.83
2018-03-07T17:56:58.096Z,1.77
2018-03-07T17:59:29.967Z,1.60
2018-03-07T18:02:02.592Z,2.17
2018-03-07T18:04:34.477Z,1.70
2018-03-07T18:07:06.586Z,1.83
2018-03-07T18:09:38.479Z,2.10
2018-03-07T18:12:10.558Z,2.00
2018-03-07T18:14:42.448Z,2.50
2018-03-07T18:17:14.314Z,2.73
2018-03-07T18:19:46.954Z,2.60
2018-03-07T18:22:18.819Z,3.10
2018-03-07T18:24:50.756Z,3.07
2018-03-07T18:27:22.624Z,3.00
2018-03-07T18:29:54.504Z,2.40
2018-03-07T18:32:26.363Z,2.50
2018-03-07T18:34:58.239Z,2.60
2018-03-07T18:37:30.334Z,2.97
2018-03-07T18:40:02.996Z,2.80
2018-03-07T18:42:35.628Z,2.47
2018-03-07T18:45:07.571Z,2.60
2018-03-07T18:47:39.439Z,2.73
2018-03-07T18:50:11.318Z,5.87
2018-03-07T18:52:43.223Z,3.50
2018-03-07T18:55:16.116Z,3.33
2018-03-07T18:57:47.983Z,3.20
2018-03-07T19:00:20.140Z,3.53
2018-03-07T19:02:52.075Z,3.83
2018-03-07T19:05:25.563Z,4.67
2018-03-07T19:07:57.479Z,4.87
2018-03-07T19:10:29.349Z,5.50
2018-03-07T19:13:01.207Z,5.23
2018-03-07T19:15:33.176Z,5.37
2018-03-07T19:18:05.048Z,5.60
2018-03-07T19:20:36.958Z,6.20
2018-03-07T19:23:09.683Z,6.03
2018-03-07T19:25:41.573Z,7.47
2018-03-07T19:28:13.439Z,8.13
2018-03-07T19:30:45.315Z,7.57
2018-03-07T19:33:17.966Z,6.37
2018-03-07T19:35:49.866Z,5.40
2018-03-07T19:38:21.738Z,4.67
2018-03-07T19:40:53.615Z,4.50
2018-03-07T19:43:25.478Z,5.40
2018-03-07T19:45:57.354Z,6.07
2018-03-07T19:48:29.230Z,6.10
2018-03-07T19:51:01.170Z,5.83
2018-03-07T19:53:33.031Z,6.13
2018-03-07T19:56:04.908Z,6.13
2018-03-07T19:58:37.114Z,8.10
2018-03-07T20:01:09.011Z,9.30
2018-03-07T20:03:40.884Z,10.87
2018-03-07T20:06:12.763Z,9.80
